Terminal Aerodrome Forecast
Issued by NWS

Home | Current Version | Previous Version | Text Only | Print | Product List | Glossary On
Versions: 1 2 3 4 5 6 7 8 9 10 11 12 13 14 15 16 17 18 19 20 21
000
FTUS44 KMAF 301722
TAFINK
TAF
KINK 301722Z 3018/3118 10009KT P6SM BKN060 BKN100
      TEMPO 3020/3024 6SM TSRA BKN040CB
     FM310000 08007KT P6SM BKN050 BKN100
      TEMPO 3100/3104 6SM TSRA BKN040CB
     FM310400 07006KT P6SM BKN050 BKN100
      TEMPO 3104/3108 6SM TSRA BR OVC020CB
     FM310800 08006KT P6SM BKN040 BKN100
      TEMPO 3108/3112 6SM TSRA BKN020CB=

USA.gov is the U.S. government's official web portal to all federal, state and local government web resources and services.